Time;durP1;ratioP1;P1;durP2;ratioP2;P2;SDS_P1;SDS_P2;PMS_P1;PMS_P2;Temp;Humidity;BMP_temperature;BMP_pressure;BME280_temperature;BME280_humidity;BME280_pressure;Samples;Min_cycle;Max_cycle;Signal;HPM_P1;HPM_P2
2023/01/25 04:11:49;;;;;;;28.30;17.60;;;;;;;3.75;74.51;103250.14;105081;1301;22597;-58
2023/01/25 04:14:17;;;;;;;30.00;17.80;;;;;;;3.83;74.02;103256.84;105804;1280;22543;-58
2023/01/25 04:17:04;;;;;;;28.10;17.80;;;;;;;3.91;73.47;103261.13;105050;1282;1002935;-59
2023/01/25 04:19:36;;;;;;;25.60;16.80;;;;;;;3.98;73.07;103258.71;104268;1285;1003520;-59
2023/01/25 04:22:04;;;;;;;32.50;17.40;;;;;;;4.02;72.61;103254.80;106007;1279;25355;-59
2023/01/25 04:24:35;;;;;;;24.20;16.50;;;;;;;4.06;71.98;103246.40;106391;1281;25526;-59
2023/01/25 04:27:02;;;;;;;26.10;17.00;;;;;;;4.09;71.48;103239.84;106145;1279;25354;-59
2023/01/25 04:29:32;;;;;;;24.60;16.20;;;;;;;4.12;71.62;103245.31;106250;1279;25355;-59
2023/01/25 04:32:10;;;;;;;24.40;16.90;;;;;;;4.15;71.37;103256.95;106700;1272;25464;-59
2023/01/25 04:34:38;;;;;;;28.30;16.20;;;;;;;4.19;71.48;103263.80;106737;1274;25339;-59
2023/01/25 04:37:08;;;;;;;29.60;17.50;;;;;;;4.22;70.95;103268.73;106719;1273;24191;-59
2023/01/25 04:39:41;;;;;;;23.50;16.50;;;;;;;4.24;70.87;103264.88;106411;1272;25462;-59
2023/01/25 04:42:08;;;;;;;25.50;16.20;;;;;;;4.26;70.81;103270.83;106592;1272;24306;-59
2023/01/25 04:44:36;;;;;;;28.00;16.40;;;;;;;4.29;70.64;103269.55;106744;1272;23347;-59
2023/01/25 04:47:03;;;;;;;25.20;16.10;;;;;;;4.32;70.47;103268.83;106665;1277;22536;-59
2023/01/25 04:49:31;;;;;;;28.00;17.00;;;;;;;4.33;70.10;103264.94;106822;1271;25422;-59
2023/01/25 04:51:58;;;;;;;25.50;17.10;;;;;;;4.34;70.29;103261.70;105668;1266;1003017;-59
2023/01/25 04:54:25;;;;;;;25.00;17.20;;;;;;;4.33;70.14;103251.87;106753;1272;22529;-59
2023/01/25 04:56:53;;;;;;;26.50;17.30;;;;;;;4.34;70.12;103252.80;106800;1271;24260;-59
2023/01/25 04:59:20;;;;;;;26.00;16.10;;;;;;;4.34;69.81;103253.30;106452;1267;22529;-59
2023/01/25 05:01:48;;;;;;;24.20;16.40;;;;;;;4.34;69.77;103256.91;106775;1271;25465;-59
2023/01/25 05:04:15;;;;;;;25.30;16.20;;;;;;;4.33;69.42;103258.77;106837;1271;25319;-59
2023/01/25 05:06:44;;;;;;;24.90;16.70;;;;;;;4.34;69.48;103261.88;106917;1271;22527;-59
2023/01/25 05:09:12;;;;;;;23.50;16.00;;;;;;;4.35;69.32;103266.05;106775;1271;25353;-59
2023/01/25 05:11:39;;;;;;;24.60;16.20;;;;;;;4.36;69.20;103264.73;106790;1272;25460;-59
2023/01/25 05:14:11;;;;;;;27.10;15.90;;;;;;;4.37;69.04;103268.55;106750;1273;25501;-59
2023/01/25 05:16:38;;;;;;;32.10;16.70;;;;;;;4.37;69.01;103274.08;105958;1272;25373;-59
2023/01/25 05:19:08;;;;;;;25.70;16.90;;;;;;;4.38;68.95;103288.02;106712;1276;22535;-59
2023/01/25 05:21:58;;;;;;;29.00;16.50;;;;;;;4.38;68.77;103290.09;106120;1272;1003617;-59
2023/01/25 05:24:48;;;;;;;26.20;17.90;;;;;;;4.38;68.95;103289.92;106042;1272;1003299;-59
2023/01/25 05:27:17;;;;;;;27.40;16.60;;;;;;;4.39;68.79;103290.80;106784;1272;25406;-59
2023/01/25 05:30:05;;;;;;;25.00;17.20;;;;;;;4.40;68.72;103285.02;106701;1272;24249;-59
2023/01/25 05:32:39;;;;;;;27.00;15.80;;;;;;;4.41;68.68;103286.75;106596;1273;25498;-59
2023/01/25 05:35:06;;;;;;;23.70;16.10;;;;;;;4.40;68.61;103283.31;106374;1273;25376;-59
2023/01/25 05:37:34;;;;;;;21.10;15.20;;;;;;;4.41;68.40;103284.88;106351;1272;22518;-59
2023/01/25 05:40:05;;;;;;;26.50;17.10;;;;;;;4.39;68.26;103282.05;106415;1277;22634;-59
2023/01/25 05:42:35;;;;;;;22.10;16.40;;;;;;;4.39;68.29;103289.60;106804;1272;25435;-59
2023/01/25 05:45:04;;;;;;;28.20;15.70;;;;;;;4.39;68.24;103294.25;106760;1272;25415;-59
2023/01/25 05:47:32;;;;;;;23.40;15.20;;;;;;;4.40;68.23;103297.88;106079;1273;1003779;-59
2023/01/25 05:50:00;;;;;;;21.60;15.00;;;;;;;4.39;68.06;103299.56;106746;1273;23280;-59
2023/01/25 05:52:37;;;;;;;21.20;14.60;;;;;;;4.38;67.99;103300.40;107016;1270;25442;-59
2023/01/25 05:55:05;;;;;;;21.30;13.70;;;;;;;4.38;67.93;103292.67;106783;1276;22531;-59
2023/01/25 05:57:33;;;;;;;19.20;13.10;;;;;;;4.39;67.90;103290.48;106898;1274;22676;-58
2023/01/25 06:00:03;;;;;;;18.90;12.70;;;;;;;4.41;67.55;103296.06;106785;1270;24256;-59
2023/01/25 06:02:42;;;;;;;19.30;13.30;;;;;;;4.43;67.44;103309.02;106803;1274;25541;-59
2023/01/25 06:05:15;;;;;;;19.00;14.00;;;;;;;4.45;67.38;103315.83;106936;1269;25517;-59
2023/01/25 06:07:43;;;;;;;20.10;13.50;;;;;;;4.46;67.27;103318.45;106492;1270;25348;-59
2023/01/25 06:10:11;;;;;;;20.20;12.90;;;;;;;4.47;67.20;103315.89;106949;1276;25433;-59
2023/01/25 06:12:39;;;;;;;18.20;12.70;;;;;;;4.47;66.94;103311.09;106964;1270;25549;-59
2023/01/25 06:15:07;;;;;;;15.60;11.90;;;;;;;4.46;66.80;103310.21;106949;1270;25340;-58
2023/01/25 06:17:35;;;;;;;19.90;12.90;;;;;;;4.46;66.72;103311.90;106893;1272;22723;-58
2023/01/25 06:20:26;;;;;;;17.00;11.60;;;;;;;4.47;66.50;103311.60;107152;1269;25462;-59
2023/01/25 06:23:06;;;;;;;19.60;12.60;;;;;;;4.48;66.37;103314.25;107130;1269;26513;-58
2023/01/25 06:25:37;;;;;;;17.90;11.90;;;;;;;4.48;66.07;103310.30;107067;1270;22527;-59
2023/01/25 06:28:05;;;;;;;19.80;12.50;;;;;;;4.47;66.03;103316.96;107158;1269;25369;-59
2023/01/25 06:30:33;;;;;;;24.10;13.30;;;;;;;4.46;65.83;103321.36;107104;1271;22780;-59
2023/01/25 06:33:00;;;;;;;22.10;12.00;;;;;;;4.46;66.10;103322.41;106313;1274;1002923;-59
2023/01/25 06:35:28;;;;;;;15.80;11.70;;;;;;;4.48;65.93;103319.92;107180;1269;25405;-59
2023/01/25 06:37:55;;;;;;;21.50;12.30;;;;;;;4.49;65.58;103311.72;106895;1267;1002364;-60
2023/01/25 06:40:22;;;;;;;16.80;12.10;;;;;;;4.51;65.65;103311.11;107118;1261;22567;-59
2023/01/25 06:42:50;;;;;;;17.80;12.60;;;;;;;4.51;65.81;103304.74;106807;1268;25429;-61
2023/01/25 06:45:17;;;;;;;22.90;13.10;;;;;;;4.51;65.46;103305.42;107093;1268;25373;-59
2023/01/25 06:47:45;;;;;;;20.20;13.20;;;;;;;4.49;65.74;103305.35;107344;1260;25373;-59
2023/01/25 06:50:12;;;;;;;19.10;13.20;;;;;;;4.47;65.71;103304.06;106871;1269;22530;-58
2023/01/25 06:52:39;;;;;;;16.80;11.60;;;;;;;4.45;65.68;103303.96;107160;1251;25443;-60
2023/01/25 06:55:08;;;;;;;17.00;11.50;;;;;;;4.44;65.83;103306.85;106524;1269;1003520;-59
2023/01/25 06:57:36;;;;;;;14.30;11.00;;;;;;;4.44;65.50;103297.89;106881;1267;23233;-59
2023/01/25 07:00:04;;;;;;;14.90;10.70;;;;;;;4.43;65.39;103294.96;106818;1260;1003052;-59
2023/01/25 07:02:31;;;;;;;18.10;10.90;;;;;;;4.43;65.37;103298.55;107185;1267;22524;-59
2023/01/25 07:05:02;;;;;;;15.80;10.90;;;;;;;4.44;65.36;103305.13;106251;1269;1003654;-59
2023/01/25 07:07:29;;;;;;;13.90;10.10;;;;;;;4.44;65.07;103310.96;107155;1266;25193;-59
2023/01/25 07:09:59;;;;;;;15.10;10.70;;;;;;;4.44;64.99;103315.76;107221;1255;24222;-59
2023/01/25 13:14:36;;;;;;;25.10;17.20;;;;;;;4.46;64.42;103164.44;105665;1289;22570;-59
2023/01/25 13:17:24;;;;;;;21.90;16.10;;;;;;;4.55;63.48;103155.23;106807;1272;25460;-58
2023/01/25 13:19:52;;;;;;;26.70;16.40;;;;;;;4.64;62.88;103155.56;106826;1272;25487;-59
2023/01/25 13:22:44;;;;;;;26.50;15.50;;;;;;;4.69;62.42;103147.70;106633;1274;271421;-58
2023/01/25 13:25:15;;;;;;;23.70;16.00;;;;;;;4.75;62.14;103149.33;106797;1276;25422;-58
2023/01/25 13:27:42;;;;;;;21.60;15.60;;;;;;;4.79;62.14;103153.28;107052;1268;25373;-57
2023/01/25 13:30:32;;;;;;;22.90;14.80;;;;;;;4.86;62.21;103144.77;106206;1272;1003691;-57
2023/01/25 13:33:03;;;;;;;43.80;21.00;;;;;;;4.96;61.95;103146.19;106982;1268;25412;-58
2023/01/25 13:35:41;;;;;;;32.40;24.10;;;;;;;5.03;61.58;103145.06;106742;1275;25536;-58
2023/01/25 13:38:10;;;;;;;26.30;18.00;;;;;;;5.04;61.11;103142.55;106896;1269;25422;-59
2023/01/25 13:40:37;;;;;;;24.30;17.40;;;;;;;5.06;60.97;103143.48;106964;1269;25373;-58
2023/01/25 13:43:10;;;;;;;25.10;16.10;;;;;;;5.09;60.91;103143.76;107040;1268;25379;-58
2023/01/25 13:45:39;;;;;;;22.70;14.70;;;;;;;5.13;60.72;103142.72;107102;1267;25348;-59
2023/01/25 13:48:09;;;;;;;25.60;15.00;;;;;;;5.15;60.19;103138.52;106037;1271;1003647;-59
2023/01/25 13:50:39;;;;;;;20.90;13.50;;;;;;;5.16;60.09;103140.25;107030;1269;25499;-59
2023/01/25 13:53:15;;;;;;;22.90;14.50;;;;;;;5.15;59.87;103136.27;107116;1268;25464;-59
2023/01/25 13:55:50;;;;;;;19.50;14.50;;;;;;;5.14;59.72;103134.65;107076;1268;25377;-59
2023/01/25 13:58:21;;;;;;;24.10;15.70;;;;;;;5.13;59.69;103137.91;106835;1269;25345;-59
2023/01/25 14:00:58;;;;;;;28.20;18.20;;;;;;;5.14;59.75;103131.56;106299;1267;1003345;-59
2023/01/25 14:03:46;;;;;;;26.00;16.20;;;;;;;5.14;59.71;103127.27;106724;1268;22523;-60
2023/01/25 14:06:16;;;;;;;28.20;17.80;;;;;;;5.17;59.77;103124.96;106977;1272;22567;-59
2023/01/25 14:08:44;;;;;;;22.50;15.40;;;;;;;5.18;59.52;103119.35;106586;1271;23866;-59
2023/01/25 14:11:23;;;;;;;20.40;13.40;;;;;;;5.17;59.37;103116.56;105807;1271;1003024;-59
2023/01/25 14:13:58;;;;;;;23.40;14.50;;;;;;;5.15;59.15;103111.30;106746;1272;25540;-59
2023/01/25 14:16:28;;;;;;;25.20;14.80;;;;;;;5.12;59.28;103108.27;106424;1260;22649;-59
2023/01/25 14:19:23;;;;;;;17.50;13.50;;;;;;;5.10;58.95;103108.89;106657;1267;24195;-59
2023/01/25 14:22:29;;;;;;;24.00;15.00;;;;;;;5.07;59.24;103107.73;106311;1278;25376;-59
2023/01/25 14:25:08;;;;;;;23.50;15.40;;;;;;;5.03;59.24;103105.69;106383;1281;24318;-59
2023/01/25 14:27:46;;;;;;;25.20;15.30;;;;;;;4.99;59.27;103109.15;106595;1260;25485;-59
2023/01/25 14:30:23;;;;;;;20.80;15.10;;;;;;;4.96;59.35;103110.26;106601;1275;22570;-59
2023/01/25 14:32:55;;;;;;;23.20;15.60;;;;;;;4.96;59.27;103114.73;106400;1277;25495;-60
2023/01/25 14:35:38;;;;;;;;;;;;;;;4.96;59.46;103114.91;106674;1262;25322;-60
2023/01/25 14:38:21;;;;;;;22.20;16.40;;;;;;;4.96;59.20;103112.14;106627;1275;25427;-58
2023/01/25 14:40:49;;;;;;;23.30;14.70;;;;;;;4.96;59.41;103117.13;106532;1275;22541;-60
2023/01/25 14:43:16;;;;;;;19.20;15.00;;;;;;;4.98;59.56;103113.39;106588;1275;22540;-60
2023/01/25 14:45:44;;;;;;;19.20;13.10;;;;;;;5.00;59.41;103109.01;106329;1278;24419;-58
2023/01/25 14:48:33;;;;;;;16.80;13.60;;;;;;;5.01;59.63;103110.95;106571;1275;25400;-58
2023/01/25 14:51:12;;;;;;;20.90;13.60;;;;;;;5.01;59.60;103114.23;106365;1276;23204;-57
2023/01/25 14:53:40;;;;;;;23.30;13.70;;;;;;;5.02;59.66;103112.88;106633;1275;25495;-57
2023/01/25 14:56:30;;;;;;;22.90;14.40;;;;;;;5.03;59.49;103108.09;106584;1275;22809;-58
2023/01/25 14:58:57;;;;;;;23.50;16.60;;;;;;;5.01;59.51;103109.23;105929;1275;1003566;-58
2023/01/25 15:01:31;;;;;;;25.30;15.50;;;;;;;5.01;59.67;103111.98;106796;1274;24411;-57
2023/01/25 15:03:58;;;;;;;23.80;15.90;;;;;;;5.02;59.59;103110.31;106802;1272;25281;-58
2023/01/25 15:06:26;;;;;;;27.70;15.90;;;;;;;5.01;59.49;103109.42;106896;1274;25555;-57
2023/01/25 15:08:57;;;;;;;24.00;15.90;;;;;;;5.01;59.51;103111.83;107075;1267;22626;-58
2023/01/25 15:11:45;;;;;;;23.70;15.20;;;;;;;5.01;59.49;103115.42;106880;1267;24303;-58
2023/01/25 15:14:17;;;;;;;28.10;17.80;;;;;;;5.03;59.49;103111.36;106925;1269;25366;-58
2023/01/25 15:16:45;;;;;;;25.80;16.90;;;;;;;5.05;59.50;103110.22;106956;1274;24379;-59
2023/01/25 15:19:21;;;;;;;27.40;16.70;;;;;;;5.06;59.42;103106.81;107065;1269;24305;-59
2023/01/25 15:21:48;;;;;;;24.50;17.40;;;;;;;5.03;59.11;103106.58;107010;1267;25498;-58
2023/01/25 15:24:15;;;;;;;26.60;15.80;;;;;;;5.02;59.10;103105.47;107105;1268;25359;-59
2023/01/25 15:26:47;;;;;;;23.10;14.40;;;;;;;5.00;59.30;103104.02;106246;1267;1003223;-59
2023/01/25 15:29:16;;;;;;;25.50;14.00;;;;;;;4.97;59.27;103099.10;107057;1272;22579;-59
2023/01/25 15:31:43;;;;;;;22.70;15.00;;;;;;;4.96;59.22;103101.48;107078;1269;25342;-58
2023/01/25 15:34:16;;;;;;;27.50;16.00;;;;;;;4.94;59.45;103097.48;106294;1267;1003702;-58
2023/01/25 15:36:43;;;;;;;24.70;16.10;;;;;;;4.95;59.39;103096.79;106847;1268;25398;-59
2023/01/25 15:39:15;;;;;;;24.80;17.40;;;;;;;4.93;59.47;103092.61;107111;1269;25495;-60
2023/01/25 15:41:43;;;;;;;27.80;16.20;;;;;;;4.93;59.65;103088.27;106803;1274;24215;-58
2023/01/25 15:44:10;;;;;;;24.10;16.60;;;;;;;4.93;59.63;103084.85;107025;1267;25526;-58
2023/01/25 15:46:39;;;;;;;26.70;18.00;;;;;;;4.93;59.77;103089.34;107015;1268;25409;-58
2023/01/25 15:49:06;;;;;;;23.60;16.10;;;;;;;4.92;59.79;103088.27;107118;1269;22717;-58
2023/01/25 15:51:33;;;;;;;25.30;17.30;;;;;;;4.92;59.93;103091.01;106880;1270;22525;-58
2023/01/25 15:54:02;;;;;;;22.60;16.80;;;;;;;4.92;60.02;103089.63;107117;1268;25243;-58
2023/01/25 15:56:31;;;;;;;23.70;16.40;;;;;;;4.92;59.84;103093.42;107130;1267;25538;-58
2023/01/25 15:58:59;;;;;;;20.90;14.70;;;;;;;4.94;59.88;103093.51;107058;1271;25397;-59
2023/01/25 22:11:44;;;;;;;15.20;10.80;;;;;;;3.52;68.07;103010.86;104791;1305;22555;-51
2023/01/25 22:14:18;;;;;;;16.10;11.30;;;;;;;3.60;67.33;103010.18;105926;1287;25312;-52
2023/01/25 22:16:45;;;;;;;13.60;10.80;;;;;;;3.67;66.55;103005.16;105970;1280;22539;-50
2023/01/25 22:19:12;;;;;;;14.00;11.20;;;;;;;3.74;66.18;103009.94;105318;1282;1003516;-51
2023/01/25 22:21:39;;;;;;;12.40;10.50;;;;;;;3.81;65.96;103006.79;106226;1280;22825;-52
2023/01/25 22:24:06;;;;;;;12.70;10.10;;;;;;;3.87;65.60;103004.98;106291;1279;24273;-51
2023/01/25 22:26:58;;;;;;;15.30;10.20;;;;;;;3.92;65.50;102996.94;105748;1281;24286;-52
2023/01/25 22:29:25;;;;;;;16.50;10.30;;;;;;;3.99;65.26;102992.94;105806;1270;1002828;-50
2023/01/25 22:31:55;;;;;;;12.00;9.70;;;;;;;4.08;64.99;102992.27;106506;1278;25400;-50
2023/01/25 22:34:23;;;;;;;12.60;9.90;;;;;;;4.14;64.65;102985.83;106789;1272;25355;-50
2023/01/25 22:36:50;;;;;;;13.10;10.70;;;;;;;4.18;64.42;102986.02;106770;1270;25516;-50
2023/01/25 22:39:18;;;;;;;12.80;10.20;;;;;;;4.22;64.35;102987.68;106582;1274;23370;-50
2023/01/25 22:41:45;;;;;;;14.90;10.50;;;;;;;4.25;64.11;102982.81;106438;1274;24206;-50
2023/01/25 22:44:13;;;;;;;11.80;9.90;;;;;;;4.28;63.87;102978.65;106385;1275;24615;-50
2023/01/25 22:46:43;;;;;;;13.40;10.40;;;;;;;4.31;63.43;102975.16;105488;1271;1003725;-50
2023/01/25 22:49:10;;;;;;;16.70;11.00;;;;;;;4.33;63.25;102971.63;106085;1277;22523;-50
2023/01/25 22:51:37;;;;;;;13.70;10.30;;;;;;;4.33;62.97;102968.36;106273;1278;25575;-49
2023/01/25 22:54:04;;;;;;;13.80;10.00;;;;;;;4.32;62.77;102969.04;106494;1273;25513;-50
2023/01/25 22:56:32;;;;;;;15.10;10.90;;;;;;;4.32;62.68;102965.60;106718;1274;22529;-50
2023/01/25 22:58:59;;;;;;;17.60;11.40;;;;;;;4.34;62.68;102966.16;106676;1272;22529;-50
2023/01/25 23:01:31;;;;;;;16.20;11.70;;;;;;;4.36;62.76;102962.30;106762;1274;23042;-51
2023/01/25 23:03:59;;;;;;;14.50;10.80;;;;;;;4.40;63.06;102955.41;106879;1266;25319;-50
2023/01/25 23:06:30;;;;;;;15.20;11.30;;;;;;;4.42;62.62;102951.86;107054;1272;25211;-49
2023/01/25 23:09:02;;;;;;;14.20;10.80;;;;;;;4.43;62.67;102943.48;107082;1266;22531;-52
2023/01/25 23:11:35;;;;;;;12.50;10.50;;;;;;;4.43;62.34;102943.81;106950;1270;22647;-52
2023/01/25 23:18:48;;;;;;;15.00;10.80;;;;;;;4.41;62.20;102947.02;107122;1267;25363;-51
2023/01/25 23:19:40;;;;;;;17.60;10.60;;;;;;;4.42;62.05;102946.17;106860;1271;25354;-51
2023/01/25 23:22:07;;;;;;;13.10;9.40;;;;;;;4.45;62.08;102944.77;106539;1270;25474;-51
2023/01/25 23:24:34;;;;;;;15.50;10.20;;;;;;;4.46;62.01;102944.81;106445;1269;1002875;-51
2023/01/25 23:27:01;;;;;;;15.90;10.30;;;;;;;4.45;61.95;102946.48;107058;1269;25409;-51
2023/01/25 23:29:29;;;;;;;16.10;9.40;;;;;;;4.42;62.02;102946.04;106826;1271;25325;-50
2023/01/25 23:31:56;;;;;;;12.10;9.80;;;;;;;4.42;61.92;102948.61;106715;1267;22522;-50
2023/01/25 23:34:23;;;;;;;12.50;10.20;;;;;;;4.43;61.74;102949.84;105724;1271;1002809;-50
2023/01/25 23:36:51;;;;;;;10.50;9.20;;;;;;;4.45;61.76;102950.09;106741;1267;25463;-50
2023/01/25 23:39:19;;;;;;;14.80;9.70;;;;;;;4.46;61.83;102948.27;105987;1267;1003388;-51
2023/01/25 23:41:46;;;;;;;14.00;10.70;;;;;;;4.46;61.72;102945.00;106730;1272;24293;-51
2023/01/25 23:44:14;;;;;;;10.70;9.00;;;;;;;4.48;61.75;102942.48;106267;1270;1003626;-51
2023/01/25 23:46:41;;;;;;;12.80;9.80;;;;;;;4.49;61.70;102943.21;107036;1267;25463;-50
2023/01/25 23:49:08;;;;;;;13.10;10.00;;;;;;;4.49;61.44;102941.31;106377;1269;1002886;-50
2023/01/25 23:51:35;;;;;;;13.70;10.20;;;;;;;4.46;61.25;102942.58;106955;1270;25476;-49
2023/01/25 23:54:04;;;;;;;11.70;9.50;;;;;;;4.45;61.34;102950.78;106887;1269;25349;-50
2023/01/25 23:56:31;;;;;;;10.90;9.00;;;;;;;4.44;61.47;102947.33;106769;1273;25383;-50
2023/01/25 23:58:58;;;;;;;11.10;9.20;;;;;;;4.44;61.45;102947.86;107087;1268;25380;-50
